createdAt,value
2024-03-17T00:00:15.624Z,25.71
2024-03-17T00:00:45.642Z,25.72
2024-03-17T00:01:15.631Z,25.72
2024-03-17T00:01:45.625Z,25.71
2024-03-17T00:02:15.623Z,25.71
2024-03-17T00:02:45.738Z,25.71
2024-03-17T00:03:15.730Z,25.72
2024-03-17T00:03:45.845Z,25.71
2024-03-17T00:04:15.848Z,25.74
2024-03-17T00:04:45.966Z,25.72
2024-03-17T00:05:16.100Z,25.71
2024-03-17T00:05:46.105Z,25.71
2024-03-17T00:06:16.099Z,25.72
2024-03-17T00:06:46.215Z,25.74
2024-03-17T00:07:16.220Z,25.71
2024-03-17T00:07:46.319Z,25.72
2024-03-17T00:08:16.336Z,25.74
2024-03-17T00:08:46.427Z,25.71
2024-03-17T00:09:16.556Z,25.68
2024-03-17T00:09:46.565Z,25.71
2024-03-17T00:10:16.578Z,25.74
2024-03-17T00:10:46.572Z,25.74
2024-03-17T00:11:16.574Z,25.74
2024-03-17T00:11:46.685Z,25.71
2024-03-17T00:12:16.677Z,25.68
2024-03-17T00:12:46.798Z,25.69
2024-03-17T00:13:16.786Z,25.71
2024-03-17T00:13:46.907Z,25.71
2024-03-17T00:14:16.895Z,25.72
2024-03-17T00:14:47.060Z,25.72
2024-03-17T00:15:16.926Z,25.72
2024-03-17T00:15:47.038Z,25.72
2024-03-17T00:16:17.168Z,25.72
2024-03-17T00:16:47.270Z,25.71
2024-03-17T00:17:17.275Z,25.72
2024-03-17T00:17:47.299Z,25.74
2024-03-17T00:18:17.307Z,25.71
2024-03-17T00:18:47.426Z,25.72
2024-03-17T00:19:17.435Z,25.72
2024-03-17T00:19:47.430Z,25.71
2024-03-17T00:20:17.430Z,25.69
2024-03-17T00:20:47.417Z,25.72
2024-03-17T00:21:17.531Z,25.71
2024-03-17T00:21:47.648Z,25.72
2024-03-17T00:22:17.763Z,25.72
2024-03-17T00:22:47.882Z,25.71
2024-03-17T00:23:17.990Z,25.74
2024-03-17T00:23:48.140Z,25.69
2024-03-17T00:24:18.166Z,25.74
2024-03-17T00:24:48.152Z,25.72
2024-03-17T00:25:18.255Z,25.69
2024-03-17T00:25:48.269Z,25.69
2024-03-17T00:26:18.364Z,25.71
2024-03-17T00:26:48.356Z,25.72
2024-03-17T00:27:18.475Z,25.72
2024-03-17T00:27:48.474Z,25.71
2024-03-17T00:28:18.594Z,25.71
2024-03-17T00:28:48.600Z,25.72
2024-03-17T00:29:18.595Z,25.69
2024-03-17T00:29:48.590Z,25.69
2024-03-17T00:30:18.707Z,25.71
2024-03-17T00:30:48.829Z,25.69
2024-03-17T00:31:18.931Z,25.72
2024-03-17T00:31:49.056Z,25.69
2024-03-17T00:32:19.053Z,25.68
2024-03-17T00:32:49.050Z,25.69
2024-03-17T00:33:19.182Z,25.69
2024-03-17T00:33:49.184Z,25.69
2024-03-17T00:34:19.186Z,25.69
2024-03-17T00:34:49.292Z,25.72
2024-03-17T00:35:19.403Z,25.68
2024-03-17T00:35:49.406Z,25.68
2024-03-17T00:36:19.522Z,25.68
2024-03-17T00:36:49.523Z,25.69
2024-03-17T00:37:19.646Z,25.69
2024-03-17T00:37:49.742Z,25.71
2024-03-17T00:38:19.846Z,25.69
2024-03-17T00:38:51.931Z,25.71
2024-03-17T00:39:20.028Z,25.71
2024-03-17T00:39:50.089Z,25.71
2024-03-17T00:40:20.174Z,25.69
2024-03-17T00:40:50.260Z,25.71
2024-03-17T00:41:20.338Z,25.69
2024-03-17T00:41:50.412Z,25.68
2024-03-17T00:42:20.494Z,25.67
2024-03-17T00:42:50.576Z,25.69
2024-03-17T00:43:20.656Z,25.69
2024-03-17T00:43:50.734Z,25.69
2024-03-17T00:44:20.806Z,25.69
2024-03-17T00:44:50.883Z,25.69
2024-03-17T00:45:20.980Z,25.69
2024-03-17T00:45:51.039Z,25.69
2024-03-17T00:46:21.121Z,25.69
2024-03-17T00:46:51.206Z,25.67
2024-03-17T00:47:21.312Z,25.67
2024-03-17T00:47:51.286Z,25.71
2024-03-17T00:48:21.396Z,25.67
2024-03-17T00:48:51.526Z,25.69
2024-03-17T00:49:21.526Z,25.68
2024-03-17T00:49:51.639Z,25.69
2024-03-17T00:50:21.761Z,25.67
2024-03-17T00:50:51.890Z,25.67
2024-03-17T00:51:21.872Z,25.69
2024-03-17T00:51:51.867Z,25.67
2024-03-17T00:52:22.001Z,25.69
2024-03-17T00:52:52.007Z,25.68
2024-03-17T00:53:22.125Z,25.68
2024-03-17T00:53:52.117Z,25.68
2024-03-17T00:54:22.237Z,25.69
2024-03-17T00:54:52.246Z,25.69
2024-03-17T00:55:22.346Z,25.69
2024-03-17T00:55:52.467Z,25.68
2024-03-17T00:56:22.582Z,25.67
2024-03-17T00:56:52.718Z,25.69
2024-03-17T00:57:22.723Z,25.69
2024-03-17T00:57:52.704Z,25.69
2024-03-17T00:58:22.821Z,25.69
2024-03-17T00:58:52.928Z,25.65
2024-03-17T00:59:23.050Z,25.69
2024-03-17T00:59:53.158Z,25.71
2024-03-17T01:00:23.274Z,25.69
2024-03-17T01:00:53.393Z,25.68
2024-03-17T01:01:23.519Z,25.69
2024-03-17T01:01:53.523Z,25.67
2024-03-17T01:02:23.513Z,25.67
2024-03-17T01:02:53.626Z,25.68
2024-03-17T01:03:23.629Z,25.68
2024-03-17T01:03:53.630Z,25.68
2024-03-17T01:04:23.629Z,25.65
2024-03-17T01:04:53.748Z,25.67
2024-03-17T01:05:23.863Z,25.67
2024-03-17T01:05:53.871Z,25.65
2024-03-17T01:06:23.888Z,25.67
2024-03-17T01:06:53.878Z,25.65
2024-03-17T01:07:23.990Z,25.64
2024-03-17T01:07:54.105Z,25.68
2024-03-17T01:08:24.106Z,25.65
2024-03-17T01:08:54.216Z,25.67
2024-03-17T01:09:24.346Z,25.64
2024-03-17T01:09:54.337Z,25.64
2024-03-17T01:10:24.496Z,25.65
2024-03-17T01:10:54.500Z,25.64
2024-03-17T01:11:24.486Z,25.62
2024-03-17T01:11:54.479Z,25.64
2024-03-17T01:12:24.485Z,25.62
2024-03-17T01:12:54.594Z,25.64
2024-03-17T01:13:24.708Z,25.61
2024-03-17T01:13:54.701Z,25.62
2024-03-17T01:14:24.820Z,25.61
2024-03-17T01:14:54.934Z,25.62
2024-03-17T01:15:25.082Z,25.62
2024-03-17T01:15:55.065Z,25.62
2024-03-17T01:16:25.186Z,25.61
2024-03-17T01:16:55.176Z,25.62
2024-03-17T01:17:25.375Z,25.58
2024-03-17T01:17:55.344Z,25.60
2024-03-17T01:18:25.451Z,25.60
2024-03-17T01:18:55.566Z,25.58
2024-03-17T01:19:25.687Z,25.60
2024-03-17T01:19:55.812Z,25.60
2024-03-17T01:20:25.820Z,25.60
2024-03-17T01:20:55.808Z,25.60
2024-03-17T01:21:25.809Z,25.58
2024-03-17T01:21:55.921Z,25.60
2024-03-17T01:22:26.043Z,25.61
2024-03-17T01:22:56.040Z,25.60
2024-03-17T01:23:26.157Z,25.61
2024-03-17T01:23:56.274Z,25.61
2024-03-17T01:24:26.394Z,25.58
2024-03-17T01:24:56.516Z,25.61
2024-03-17T01:25:26.495Z,25.61
2024-03-17T01:25:56.631Z,25.61
2024-03-17T01:26:26.719Z,25.62
2024-03-17T01:26:56.716Z,25.61
2024-03-17T01:27:26.825Z,25.61
2024-03-17T01:27:56.941Z,25.61
2024-03-17T01:28:27.059Z,25.62
2024-03-17T01:28:57.181Z,25.62
2024-03-17T01:29:27.192Z,25.61
2024-03-17T01:29:57.218Z,25.61
2024-03-17T01:30:27.207Z,25.64
2024-03-17T01:30:57.354Z,25.65
2024-03-17T01:31:27.322Z,25.62
2024-03-17T01:31:57.428Z,25.65
2024-03-17T01:32:27.550Z,25.62
2024-03-17T01:32:57.549Z,25.65
2024-03-17T01:33:27.665Z,25.64
2024-03-17T01:33:57.673Z,25.65
2024-03-17T01:34:27.673Z,25.65
2024-03-17T01:34:57.671Z,25.65
2024-03-17T01:35:27.771Z,25.67
2024-03-17T01:35:57.885Z,25.62
2024-03-17T01:36:28.003Z,25.65
2024-03-17T01:36:57.989Z,25.64
2024-03-17T01:37:28.107Z,25.65
2024-03-17T01:37:58.184Z,25.64
2024-03-17T01:38:28.277Z,25.62
2024-03-17T01:38:58.378Z,25.65
2024-03-17T01:39:28.460Z,25.65
2024-03-17T01:39:58.537Z,25.65
2024-03-17T01:40:28.614Z,25.64
2024-03-17T01:40:58.694Z,25.67
2024-03-17T01:41:28.791Z,25.65
2024-03-17T01:41:58.872Z,25.65
2024-03-17T01:42:28.942Z,25.65
2024-03-17T01:42:59.047Z,25.65
2024-03-17T01:43:29.149Z,25.64
2024-03-17T01:43:59.252Z,25.65
2024-03-17T01:44:29.386Z,25.64
2024-03-17T01:44:59.363Z,25.64
2024-03-17T01:45:29.417Z,25.62
2024-03-17T01:45:59.517Z,25.65
2024-03-17T01:46:29.596Z,25.64
2024-03-17T01:46:59.678Z,25.62
2024-03-17T01:47:29.796Z,25.64
2024-03-17T01:47:59.797Z,25.67
2024-03-17T01:48:29.803Z,25.64
2024-03-17T01:48:59.822Z,25.64
2024-03-17T01:49:29.798Z,25.67
2024-03-17T01:49:59.912Z,25.64
2024-03-17T01:50:29.918Z,25.65
2024-03-17T01:50:59.941Z,25.64
2024-03-17T01:51:30.033Z,25.62
2024-03-17T01:52:00.068Z,25.65
2024-03-17T01:52:30.066Z,25.64
2024-03-17T01:53:00.082Z,25.64
2024-03-17T01:53:30.086Z,25.67
2024-03-17T01:54:00.086Z,25.65
2024-03-17T01:54:30.148Z,25.64
2024-03-17T01:55:00.180Z,25.67
2024-03-17T01:55:30.161Z,25.64
2024-03-17T01:56:00.278Z,25.65
2024-03-17T01:56:30.393Z,25.67
2024-03-17T01:57:00.542Z,25.64
2024-03-17T01:57:30.553Z,25.64
2024-03-17T01:58:00.553Z,25.65
2024-03-17T01:58:30.658Z,25.65
2024-03-17T01:59:00.815Z,25.65
2024-03-17T01:59:30.789Z,25.67
2024-03-17T02:00:00.777Z,25.64
2024-03-17T02:00:30.905Z,25.64
2024-03-17T02:01:01.021Z,25.67
2024-03-17T02:01:31.126Z,25.64
2024-03-17T02:02:01.254Z,25.65
2024-03-17T02:02:31.244Z,25.64
2024-03-17T02:03:01.360Z,25.65
2024-03-17T02:03:31.487Z,25.65
2024-03-17T02:04:01.610Z,25.65
2024-03-17T02:04:31.710Z,25.62
2024-03-17T02:05:03.064Z,25.62
2024-03-17T02:05:31.720Z,25.64
2024-03-17T02:06:01.719Z,25.62
2024-03-17T02:06:31.839Z,25.67
2024-03-17T02:07:01.853Z,25.65
2024-03-17T02:07:31.847Z,25.65
2024-03-17T02:08:01.960Z,25.64
2024-03-17T02:08:32.064Z,25.64
2024-03-17T02:09:02.063Z,25.64
2024-03-17T02:09:32.061Z,25.64
2024-03-17T02:10:02.182Z,25.64
2024-03-17T02:10:32.070Z,25.62
2024-03-17T02:11:02.075Z,25.62
2024-03-17T02:11:32.088Z,25.65
2024-03-17T02:12:02.099Z,25.62
2024-03-17T02:12:32.078Z,25.65
2024-03-17T02:13:02.197Z,25.61
2024-03-17T02:13:32.200Z,25.62
2024-03-17T02:14:02.218Z,25.67
2024-03-17T02:14:32.190Z,25.64
2024-03-17T02:15:02.300Z,25.64
2024-03-17T02:15:32.415Z,25.61
2024-03-17T02:16:02.478Z,25.64
2024-03-17T02:16:32.453Z,25.67
2024-03-17T02:17:02.585Z,25.65
2024-03-17T02:17:32.569Z,25.64
2024-03-17T02:18:02.677Z,25.62
2024-03-17T02:18:32.789Z,25.67
2024-03-17T02:19:02.813Z,25.65
2024-03-17T02:19:32.802Z,25.65
2024-03-17T02:20:02.916Z,25.64
2024-03-17T02:20:33.052Z,25.64
2024-03-17T02:21:03.066Z,25.62
2024-03-17T02:21:33.035Z,25.65
2024-03-17T02:22:03.159Z,25.62
2024-03-17T02:22:33.153Z,25.62
2024-03-17T02:23:03.150Z,25.64
2024-03-17T02:23:39.006Z,25.62
2024-03-17T02:24:03.156Z,25.62
2024-03-17T02:24:33.148Z,25.64
2024-03-17T02:25:03.171Z,25.64
2024-03-17T02:25:33.284Z,25.61
2024-03-17T02:26:03.283Z,25.64
2024-03-17T02:26:33.396Z,25.62
2024-03-17T02:27:03.509Z,25.62
2024-03-17T02:27:33.649Z,25.61
2024-03-17T02:28:03.754Z,25.62
2024-03-17T02:28:33.874Z,25.62
2024-03-17T02:29:03.867Z,25.62
2024-03-17T02:29:33.981Z,25.61
2024-03-17T02:30:03.998Z,25.61
2024-03-17T02:30:33.995Z,25.62
2024-03-17T02:31:04.005Z,25.62
2024-03-17T02:31:34.114Z,25.62
2024-03-17T02:32:04.232Z,25.61
2024-03-17T02:32:34.232Z,25.61
2024-03-17T02:33:04.349Z,25.61
2024-03-17T02:33:34.336Z,25.61
2024-03-17T02:34:04.466Z,25.65
2024-03-17T02:34:34.576Z,25.64
2024-03-17T02:35:04.698Z,25.62
2024-03-17T02:35:34.830Z,25.61
2024-03-17T02:36:04.812Z,25.60
2024-03-17T02:36:34.810Z,25.60
2024-03-17T02:37:04.811Z,25.61
2024-03-17T02:37:34.808Z,25.65
2024-03-17T02:38:04.883Z,25.61
2024-03-17T02:38:34.968Z,25.61
2024-03-17T02:39:05.051Z,25.61
2024-03-17T02:39:35.129Z,25.62
2024-03-17T02:40:05.213Z,25.64
2024-03-17T02:40:35.286Z,25.61
2024-03-17T02:41:05.371Z,25.61
2024-03-17T02:41:35.441Z,25.61
2024-03-17T02:42:05.517Z,25.62
2024-03-17T02:42:35.635Z,25.61
2024-03-17T02:43:05.769Z,25.61
2024-03-17T02:43:35.720Z,25.62
2024-03-17T02:44:05.812Z,25.61
2024-03-17T02:44:35.886Z,25.61
2024-03-17T02:45:05.982Z,25.60
2024-03-17T02:45:36.057Z,25.61
2024-03-17T02:46:06.158Z,25.62
2024-03-17T02:46:36.223Z,25.60
2024-03-17T02:47:06.300Z,25.62
2024-03-17T02:47:36.381Z,25.61
2024-03-17T02:48:06.491Z,25.62
2024-03-17T02:48:36.504Z,25.62
2024-03-17T02:49:06.584Z,25.62
2024-03-17T02:49:36.572Z,25.61
2024-03-17T02:50:06.687Z,25.62
2024-03-17T02:50:36.805Z,25.62
2024-03-17T02:51:06.913Z,25.64
2024-03-17T02:51:37.028Z,25.61
2024-03-17T02:52:07.171Z,25.61
2024-03-17T02:52:37.146Z,25.61
2024-03-17T02:53:07.264Z,25.62
2024-03-17T02:53:37.386Z,25.61
2024-03-17T02:54:13.184Z,25.61
2024-03-17T02:54:40.902Z,25.62
2024-03-17T02:55:07.432Z,25.61
2024-03-17T02:55:37.424Z,25.60
2024-03-17T02:56:07.546Z,25.62
2024-03-17T02:56:37.539Z,25.61
2024-03-17T02:57:07.647Z,25.61
2024-03-17T02:57:37.760Z,25.60
2024-03-17T02:58:07.908Z,25.61
2024-03-17T02:58:37.915Z,25.58
2024-03-17T02:59:07.895Z,25.60
2024-03-17T02:59:37.891Z,25.61
2024-03-17T03:00:08.032Z,25.58
2024-03-17T03:00:38.117Z,25.60
2024-03-17T03:01:08.271Z,25.60
2024-03-17T03:01:38.264Z,25.60
2024-03-17T03:02:08.405Z,25.61
2024-03-17T03:02:38.513Z,25.61
2024-03-17T03:03:08.507Z,25.60
2024-03-17T03:03:38.508Z,25.60
2024-03-17T03:04:08.662Z,25.61
2024-03-17T03:04:38.650Z,25.60
2024-03-17T03:05:08.649Z,25.60
2024-03-17T03:05:38.763Z,25.60
2024-03-17T03:06:08.876Z,25.60
2024-03-17T03:06:38.989Z,25.61
2024-03-17T03:07:09.109Z,25.60
2024-03-17T03:07:39.123Z,25.57
2024-03-17T03:08:09.115Z,25.60
2024-03-17T03:08:39.111Z,25.62
2024-03-17T03:09:09.105Z,25.60
2024-03-17T03:09:39.221Z,25.60
2024-03-17T03:10:09.388Z,25.62
2024-03-17T03:10:39.380Z,25.61
2024-03-17T03:11:09.369Z,25.62
2024-03-17T03:11:39.491Z,25.61
2024-03-17T03:12:09.620Z,25.60
2024-03-17T03:12:39.623Z,25.60
2024-03-17T03:13:09.756Z,25.61
2024-03-17T03:13:39.731Z,25.58
2024-03-17T03:14:09.871Z,25.60
2024-03-17T03:14:39.957Z,25.58
2024-03-17T03:15:09.968Z,25.58
2024-03-17T03:15:40.078Z,25.61
2024-03-17T03:16:10.081Z,25.58
2024-03-17T03:16:40.091Z,25.60
2024-03-17T03:17:10.077Z,25.60
2024-03-17T03:17:40.192Z,25.58
2024-03-17T03:18:10.309Z,25.61
2024-03-17T03:18:40.424Z,25.58
2024-03-17T03:19:10.541Z,25.62
2024-03-17T03:19:40.662Z,25.58
2024-03-17T03:20:10.784Z,25.58
2024-03-17T03:20:40.981Z,25.61
2024-03-17T03:21:10.975Z,25.60
2024-03-17T03:21:40.960Z,25.60
2024-03-17T03:22:11.084Z,25.61
2024-03-17T03:22:41.072Z,25.60
2024-03-17T03:23:11.191Z,25.60
2024-03-17T03:23:41.303Z,25.57
2024-03-17T03:24:11.421Z,25.58
2024-03-17T03:24:41.536Z,25.60
2024-03-17T03:25:11.657Z,25.58
2024-03-17T03:25:44.709Z,25.58
2024-03-17T03:26:11.771Z,25.60
2024-03-17T03:26:41.879Z,25.55
2024-03-17T03:27:11.993Z,25.58
2024-03-17T03:27:42.147Z,25.57
2024-03-17T03:28:12.112Z,25.60
2024-03-17T03:28:42.110Z,25.60
2024-03-17T03:29:12.230Z,25.60
2024-03-17T03:29:42.236Z,25.60
2024-03-17T03:30:12.343Z,25.58
2024-03-17T03:30:42.348Z,25.57
2024-03-17T03:31:12.332Z,25.58
2024-03-17T03:31:42.337Z,25.60
2024-03-17T03:32:12.458Z,25.60
2024-03-17T03:32:42.449Z,25.58
2024-03-17T03:33:12.455Z,25.60
2024-03-17T03:33:42.453Z,25.58
2024-03-17T03:34:12.573Z,25.58
2024-03-17T03:34:42.683Z,25.60
2024-03-17T03:35:12.698Z,25.58
2024-03-17T03:35:42.702Z,25.58
2024-03-17T03:36:12.701Z,25.60
2024-03-17T03:36:42.824Z,25.58
2024-03-17T03:37:12.931Z,25.58
2024-03-17T03:37:43.032Z,25.58
2024-03-17T03:38:13.106Z,25.58
2024-03-17T03:38:43.181Z,25.57
2024-03-17T03:39:13.263Z,25.61
2024-03-17T03:39:43.359Z,25.57
2024-03-17T03:40:13.472Z,25.58
2024-03-17T03:40:43.562Z,25.57
2024-03-17T03:41:13.622Z,25.58
2024-03-17T03:41:43.706Z,25.58
2024-03-17T03:42:13.772Z,25.57
2024-03-17T03:42:43.845Z,25.57
2024-03-17T03:43:13.935Z,25.57
2024-03-17T03:43:44.019Z,25.57
2024-03-17T03:44:14.093Z,25.58
2024-03-17T03:44:44.179Z,25.57
2024-03-17T03:45:14.279Z,25.57
2024-03-17T03:45:44.339Z,25.57
2024-03-17T03:46:14.433Z,25.57
2024-03-17T03:46:44.502Z,25.58
2024-03-17T03:47:14.589Z,25.58
2024-03-17T03:47:44.693Z,25.58
2024-03-17T03:48:14.810Z,25.60
2024-03-17T03:48:44.883Z,25.57
2024-03-17T03:49:15.007Z,25.55
2024-03-17T03:49:45.013Z,25.55
2024-03-17T03:50:15.013Z,25.58
2024-03-17T03:50:45.129Z,25.57
2024-03-17T03:51:15.128Z,25.57
2024-03-17T03:51:45.261Z,25.57
2024-03-17T03:52:15.382Z,25.57
2024-03-17T03:52:45.359Z,25.57
2024-03-17T03:53:15.476Z,25.55
2024-03-17T03:53:45.501Z,25.58
2024-03-17T03:54:15.505Z,25.57
2024-03-17T03:54:45.509Z,25.57
2024-03-17T03:55:15.497Z,25.60
2024-03-17T03:55:45.600Z,25.58
2024-03-17T03:56:15.601Z,25.60
2024-03-17T03:56:45.714Z,25.57
2024-03-17T03:57:15.824Z,25.60
2024-03-17T03:57:45.814Z,25.58
2024-03-17T03:58:15.925Z,25.58
2024-03-17T03:58:46.052Z,25.60
2024-03-17T03:59:16.042Z,25.58
2024-03-17T03:59:46.153Z,25.57
2024-03-17T04:00:16.278Z,25.60
2024-03-17T04:00:46.412Z,25.60
2024-03-17T04:01:16.554Z,25.58
2024-03-17T04:01:46.532Z,25.57
2024-03-17T04:02:16.646Z,25.57
2024-03-17T04:02:46.639Z,25.55
2024-03-17T04:03:17.013Z,25.57
2024-03-17T04:03:46.761Z,25.57
2024-03-17T04:04:16.749Z,25.55
2024-03-17T04:04:46.859Z,25.58
2024-03-17T04:05:16.991Z,25.55
2024-03-17T04:05:47.091Z,25.57
2024-03-17T04:06:17.204Z,25.58
2024-03-17T04:06:47.315Z,25.55
2024-03-17T04:07:17.432Z,25.58
2024-03-17T04:07:47.441Z,25.57
2024-03-17T04:08:17.447Z,25.55
2024-03-17T04:08:47.450Z,25.57
2024-03-17T04:09:17.558Z,25.55
2024-03-17T04:09:47.677Z,25.55
2024-03-17T04:10:17.792Z,25.57
2024-03-17T04:10:47.788Z,25.55
2024-03-17T04:11:17.902Z,25.55
2024-03-17T04:11:47.906Z,25.57
2024-03-17T04:12:18.040Z,25.57
2024-03-17T04:12:48.037Z,25.55
2024-03-17T04:13:18.027Z,25.54
2024-03-17T04:13:48.141Z,25.57
2024-03-17T04:14:18.254Z,25.55
2024-03-17T04:14:48.251Z,25.54
2024-03-17T04:15:18.361Z,25.57
2024-03-17T04:15:48.479Z,25.55
2024-03-17T04:16:18.662Z,25.55
2024-03-17T04:16:48.637Z,25.55
2024-03-17T04:17:18.769Z,25.55
2024-03-17T04:17:48.788Z,25.54
2024-03-17T04:18:18.811Z,25.55
2024-03-17T04:18:48.808Z,25.54
2024-03-17T04:19:18.921Z,25.52
2024-03-17T04:19:48.917Z,25.52
2024-03-17T04:20:19.026Z,25.52
2024-03-17T04:20:49.031Z,25.54
2024-03-17T04:21:19.028Z,25.52
2024-03-17T04:21:49.153Z,25.52
2024-03-17T04:22:19.158Z,25.51
2024-03-17T04:22:49.152Z,25.51
2024-03-17T04:23:19.268Z,25.51
2024-03-17T04:23:49.382Z,25.49
2024-03-17T04:24:19.493Z,25.48
2024-03-17T04:24:49.625Z,25.49
2024-03-17T04:25:19.626Z,25.49
2024-03-17T04:25:49.743Z,25.49
2024-03-17T04:26:19.783Z,25.48
2024-03-17T04:26:49.793Z,25.49
2024-03-17T04:27:19.781Z,25.49
2024-03-17T04:27:49.903Z,25.48
2024-03-17T04:28:19.907Z,25.48
2024-03-17T04:28:49.892Z,25.48
2024-03-17T04:29:19.895Z,25.48
2024-03-17T04:29:49.891Z,25.47
2024-03-17T04:30:20.007Z,25.48
2024-03-17T04:30:50.137Z,25.45
2024-03-17T04:31:20.138Z,25.49
2024-03-17T04:31:50.167Z,25.45
2024-03-17T04:32:20.154Z,25.47
2024-03-17T04:32:50.157Z,25.47
2024-03-17T04:33:20.256Z,25.47
2024-03-17T04:33:50.266Z,25.45
2024-03-17T04:34:20.269Z,25.47
2024-03-17T04:34:50.264Z,25.45
2024-03-17T04:35:20.261Z,25.48
2024-03-17T04:35:50.263Z,25.47
2024-03-17T04:36:20.263Z,25.47
2024-03-17T04:36:50.246Z,25.47
2024-03-17T04:37:59.383Z,25.47
2024-03-17T04:38:29.463Z,25.44
2024-03-17T04:38:59.598Z,25.42
2024-03-17T04:39:29.618Z,25.44
2024-03-17T04:39:59.709Z,25.41
2024-03-17T04:40:29.838Z,25.42
2024-03-17T04:40:59.922Z,25.40
2024-03-17T04:41:30.016Z,25.42
2024-03-17T04:42:00.081Z,25.41
2024-03-17T04:42:30.164Z,25.41
2024-03-17T04:43:00.265Z,25.42
2024-03-17T04:43:30.328Z,25.42
2024-03-17T04:44:00.423Z,25.41
2024-03-17T04:44:30.486Z,25.41
2024-03-17T04:45:00.602Z,25.44
2024-03-17T04:45:30.675Z,25.42
2024-03-17T04:46:00.765Z,25.41
2024-03-17T04:46:30.834Z,25.44
2024-03-17T04:47:00.929Z,25.41
2024-03-17T04:47:30.988Z,25.44
2024-03-17T04:48:00.985Z,25.45
2024-03-17T04:48:31.095Z,25.45
2024-03-17T04:49:01.211Z,25.44
2024-03-17T04:49:31.322Z,25.44
2024-03-17T04:50:01.494Z,25.48
2024-03-17T04:50:31.473Z,25.47
2024-03-17T04:51:01.517Z,25.48
2024-03-17T04:51:31.492Z,25.49
2024-03-17T04:52:01.497Z,25.47
2024-03-17T04:52:31.598Z,25.48
2024-03-17T04:53:01.717Z,25.47
2024-03-17T04:53:31.834Z,25.48
2024-03-17T04:54:01.944Z,25.48
2024-03-17T04:54:33.830Z,25.49
2024-03-17T04:55:02.020Z,25.47
2024-03-17T04:55:32.014Z,25.49
2024-03-17T04:56:02.132Z,25.48
2024-03-17T04:56:32.122Z,25.48
2024-03-17T04:57:02.128Z,25.48
2024-03-17T04:57:32.248Z,25.48
2024-03-17T04:58:02.360Z,25.49
2024-03-17T04:58:32.373Z,25.51
2024-03-17T04:59:02.503Z,25.49
2024-03-17T04:59:32.514Z,25.49
2024-03-17T05:00:02.521Z,25.49
2024-03-17T05:00:32.529Z,25.51
2024-03-17T05:01:02.650Z,25.51
2024-03-17T05:01:32.641Z,25.49
2024-03-17T05:02:02.755Z,25.49
2024-03-17T05:02:32.775Z,25.52
2024-03-17T05:03:02.872Z,25.49
2024-03-17T05:03:32.881Z,25.49
2024-03-17T05:04:02.922Z,25.49
2024-03-17T05:04:32.910Z,25.49
2024-03-17T05:05:03.029Z,25.51
2024-03-17T05:05:33.041Z,25.49
2024-03-17T05:06:03.146Z,25.51
2024-03-17T05:06:33.139Z,25.49
2024-03-17T05:07:03.255Z,25.49
2024-03-17T05:07:33.367Z,25.49
2024-03-17T05:08:03.481Z,25.51
2024-03-17T05:08:33.483Z,25.51
2024-03-17T05:09:03.488Z,25.51
2024-03-17T05:09:33.481Z,25.51
2024-03-17T05:10:07.321Z,25.49
2024-03-17T05:10:33.577Z,25.49
2024-03-17T05:11:03.681Z,25.51
2024-03-17T05:11:33.799Z,25.51
2024-03-17T05:12:03.914Z,25.49
2024-03-17T05:12:33.915Z,25.51
2024-03-17T05:13:04.067Z,25.48
2024-03-17T05:13:34.064Z,25.51
2024-03-17T05:14:04.067Z,25.52
2024-03-17T05:14:34.052Z,25.52
2024-03-17T05:15:04.170Z,25.52
2024-03-17T05:15:34.266Z,25.51
2024-03-17T05:16:04.382Z,25.49
2024-03-17T05:16:34.501Z,25.52
2024-03-17T05:17:04.500Z,25.49
2024-03-17T05:17:34.508Z,25.54
2024-03-17T05:18:04.543Z,25.52
2024-03-17T05:18:34.528Z,25.51
2024-03-17T05:19:04.529Z,25.49
2024-03-17T05:19:34.532Z,25.51
2024-03-17T05:20:04.655Z,25.51
2024-03-17T05:20:34.762Z,25.49
2024-03-17T05:21:04.880Z,25.51
2024-03-17T05:21:34.997Z,25.51
2024-03-17T05:22:05.114Z,25.51
2024-03-17T05:22:35.125Z,25.51
2024-03-17T05:23:05.116Z,25.48
2024-03-17T05:23:35.103Z,25.49
2024-03-17T05:24:05.221Z,25.51
2024-03-17T05:24:35.219Z,25.49
2024-03-17T05:25:05.225Z,25.49
2024-03-17T05:25:35.207Z,25.52
2024-03-17T05:26:05.208Z,25.48
2024-03-17T05:26:35.324Z,25.51
2024-03-17T05:27:05.464Z,25.51
2024-03-17T05:27:35.470Z,25.49
2024-03-17T05:28:05.460Z,25.49
2024-03-17T05:28:35.574Z,25.49
2024-03-17T05:29:05.704Z,25.52
2024-03-17T05:29:35.816Z,25.51
2024-03-17T05:30:05.817Z,25.52
2024-03-17T05:30:35.938Z,25.51
2024-03-17T05:31:05.937Z,25.47
2024-03-17T05:31:36.060Z,25.51
2024-03-17T05:32:06.059Z,25.51
2024-03-17T05:32:36.072Z,25.49
2024-03-17T05:33:06.074Z,25.48
2024-03-17T05:33:36.163Z,25.49
2024-03-17T05:34:06.293Z,25.49
2024-03-17T05:34:36.394Z,25.48
2024-03-17T05:35:06.402Z,25.48
2024-03-17T05:35:36.390Z,25.49
2024-03-17T05:36:06.536Z,25.49
2024-03-17T05:36:36.538Z,25.51
2024-03-17T05:37:09.674Z,25.48
2024-03-17T05:37:36.614Z,25.51
2024-03-17T05:38:06.673Z,25.48
2024-03-17T05:38:36.743Z,25.49
2024-03-17T05:39:06.830Z,25.49
2024-03-17T05:39:36.912Z,25.49
2024-03-17T05:40:07.073Z,25.48
2024-03-17T05:40:37.094Z,25.52
2024-03-17T05:41:07.200Z,25.48
2024-03-17T05:41:37.271Z,25.51
2024-03-17T05:42:07.344Z,25.52
2024-03-17T05:42:37.426Z,25.51
2024-03-17T05:43:07.526Z,25.49
2024-03-17T05:43:37.594Z,25.49
2024-03-17T05:44:07.679Z,25.51
2024-03-17T05:44:40.002Z,25.49
2024-03-17T05:45:07.852Z,25.49
2024-03-17T05:45:37.987Z,25.48
2024-03-17T05:46:08.060Z,25.51
2024-03-17T05:46:38.145Z,25.51
2024-03-17T05:47:08.223Z,25.48
2024-03-17T05:47:38.324Z,25.49
2024-03-17T05:48:08.367Z,25.48
2024-03-17T05:48:38.343Z,25.51
2024-03-17T05:49:08.357Z,25.49
2024-03-17T05:49:38.338Z,25.48
2024-03-17T05:50:08.469Z,25.48
2024-03-17T05:50:38.475Z,25.49
2024-03-17T05:51:08.477Z,25.48
2024-03-17T05:51:38.476Z,25.49
2024-03-17T05:52:08.646Z,25.48
2024-03-17T05:52:38.626Z,25.51
2024-03-17T05:53:08.743Z,25.47
2024-03-17T05:53:38.856Z,25.49
2024-03-17T05:54:08.981Z,25.48
2024-03-17T05:54:38.994Z,25.49
2024-03-17T05:55:09.031Z,25.48
2024-03-17T05:55:39.010Z,25.49
2024-03-17T05:56:09.121Z,25.48
2024-03-17T05:56:39.137Z,25.48
2024-03-17T05:57:09.254Z,25.48
2024-03-17T05:57:39.243Z,25.48
2024-03-17T05:58:11.940Z,25.47
2024-03-17T05:58:39.418Z,25.48
2024-03-17T05:59:09.528Z,25.48
2024-03-17T05:59:39.543Z,25.48
2024-03-17T06:00:09.534Z,25.48
2024-03-17T06:00:39.543Z,25.48
2024-03-17T06:01:09.650Z,25.48
2024-03-17T06:01:39.656Z,25.48
2024-03-17T06:02:09.773Z,25.48
2024-03-17T06:02:39.889Z,25.48
2024-03-17T06:03:09.890Z,25.48
2024-03-17T06:03:39.920Z,25.48
2024-03-17T06:04:09.916Z,25.48
2024-03-17T06:04:39.912Z,25.48
2024-03-17T06:05:09.903Z,25.48
2024-03-17T06:05:40.028Z,25.48
2024-03-17T06:06:10.021Z,25.48
2024-03-17T06:06:40.135Z,25.49
2024-03-17T06:07:10.260Z,25.47
2024-03-17T06:07:40.364Z,25.48
2024-03-17T06:08:10.492Z,25.48
2024-03-17T06:08:40.517Z,25.48
2024-03-17T06:09:10.521Z,25.49
2024-03-17T06:09:40.505Z,25.49
2024-03-17T06:10:11.935Z,25.48
2024-03-17T06:10:40.724Z,25.47
2024-03-17T06:11:10.715Z,25.47
2024-03-17T06:11:40.832Z,25.47
2024-03-17T06:12:10.947Z,25.47
2024-03-17T06:12:41.061Z,25.47
2024-03-17T06:13:11.182Z,25.47
2024-03-17T06:13:41.201Z,25.48
2024-03-17T06:14:11.190Z,25.47
2024-03-17T06:14:41.188Z,25.48
2024-03-17T06:15:11.305Z,25.47
2024-03-17T06:15:41.419Z,25.49
2024-03-17T06:16:11.432Z,25.47
2024-03-17T06:16:41.412Z,25.48
2024-03-17T06:17:11.524Z,25.47
2024-03-17T06:17:41.642Z,25.45
2024-03-17T06:18:11.767Z,25.47
2024-03-17T06:18:41.758Z,25.48
2024-03-17T06:19:11.769Z,25.48
2024-03-17T06:19:41.741Z,25.48
2024-03-17T06:20:11.863Z,25.47
2024-03-17T06:20:41.969Z,25.48
2024-03-17T06:21:12.080Z,25.48
2024-03-17T06:21:42.071Z,25.49
2024-03-17T06:22:12.191Z,25.48
2024-03-17T06:22:42.311Z,25.48
2024-03-17T06:23:12.337Z,25.47
2024-03-17T06:23:42.317Z,25.47
2024-03-17T06:24:12.431Z,25.44
2024-03-17T06:24:42.546Z,25.47
2024-03-17T06:25:12.701Z,25.47
2024-03-17T06:25:42.704Z,25.48
2024-03-17T06:26:12.823Z,25.45
2024-03-17T06:26:42.805Z,25.45
2024-03-17T06:27:12.938Z,25.47
2024-03-17T06:27:42.941Z,25.47